RJOH(METAR)
05/24 14:00
METAR RJOH 240500Z 26016KT 9999 FEW040 29/12 Q1011 RMK 1CU040 A2987=
戻る
トップページへ戻る
IMOC Co,.Ltd.